sensor_id;sensor_type;location;lat;lon;timestamp;temperature;humidity
19437;DHT22;9854;50.968;4.168;2022-07-04T00:00:11;16.90;99.90
19437;DHT22;9854;50.968;4.168;2022-07-04T00:02:40;16.80;99.90
19437;DHT22;9854;50.968;4.168;2022-07-04T00:05:06;16.70;99.90
19437;DHT22;9854;50.968;4.168;2022-07-04T00:07:37;16.60;99.90
19437;DHT22;9854;50.968;4.168;2022-07-04T00:10:04;16.70;99.90
19437;DHT22;9854;50.968;4.168;2022-07-04T00:12:30;16.80;99.90
19437;DHT22;9854;50.968;4.168;2022-07-04T00:14:55;16.90;99.90
19437;DHT22;9854;50.968;4.168;2022-07-04T00:17:21;16.80;99.90
19437;DHT22;9854;50.968;4.168;2022-07-04T00:19:47;17.00;99.90
19437;DHT22;9854;50.968;4.168;2022-07-04T00:22:12;17.10;99.90
19437;DHT22;9854;50.968;4.168;2022-07-04T00:24:38;17.30;99.90
19437;DHT22;9854;50.968;4.168;2022-07-04T00:27:04;17.40;99.90
19437;DHT22;9854;50.968;4.168;2022-07-04T00:29:30;17.50;99.90
19437;DHT22;9854;50.968;4.168;2022-07-04T00:31:55;17.50;99.90
19437;DHT22;9854;50.968;4.168;2022-07-04T00:34:21;17.40;99.90
19437;DHT22;9854;50.968;4.168;2022-07-04T00:36:47;17.40;99.90
19437;DHT22;9854;50.968;4.168;2022-07-04T00:39:12;17.30;99.90
19437;DHT22;9854;50.968;4.168;2022-07-04T00:41:38;17.20;99.90
19437;DHT22;9854;50.968;4.168;2022-07-04T00:44:09;17.10;99.90
19437;DHT22;9854;50.968;4.168;2022-07-04T00:46:35;17.00;99.90
19437;DHT22;9854;50.968;4.168;2022-07-04T00:49:03;16.60;99.90
19437;DHT22;9854;50.968;4.168;2022-07-04T00:51:29;16.40;99.90
19437;DHT22;9854;50.968;4.168;2022-07-04T00:53:56;16.50;99.90
19437;DHT22;9854;50.968;4.168;2022-07-04T00:56:23;16.70;99.90
19437;DHT22;9854;50.968;4.168;2022-07-04T00:58:49;16.70;99.90
19437;DHT22;9854;50.968;4.168;2022-07-04T01:01:16;16.60;99.90
19437;DHT22;9854;50.968;4.168;2022-07-04T01:03:42;16.70;99.90
19437;DHT22;9854;50.968;4.168;2022-07-04T01:06:08;16.40;99.90
19437;DHT22;9854;50.968;4.168;2022-07-04T01:08:40;16.30;99.90
19437;DHT22;9854;50.968;4.168;2022-07-04T01:11:06;16.40;99.90
19437;DHT22;9854;50.968;4.168;2022-07-04T01:13:33;16.30;99.90
19437;DHT22;9854;50.968;4.168;2022-07-04T01:15:59;16.40;99.90
19437;DHT22;9854;50.968;4.168;2022-07-04T01:18:24;16.20;99.90
19437;DHT22;9854;50.968;4.168;2022-07-04T01:20:50;16.10;99.90
19437;DHT22;9854;50.968;4.168;2022-07-04T01:23:16;16.00;99.90
19437;DHT22;9854;50.968;4.168;2022-07-04T01:25:42;15.90;99.90
19437;DHT22;9854;50.968;4.168;2022-07-04T01:28:07;15.80;99.90
19437;DHT22;9854;50.968;4.168;2022-07-04T01:30:34;15.70;99.90
19437;DHT22;9854;50.968;4.168;2022-07-04T01:33:00;15.70;99.90
19437;DHT22;9854;50.968;4.168;2022-07-04T01:35:26;15.60;99.90
19437;DHT22;9854;50.968;4.168;2022-07-04T01:37:52;15.70;99.90
19437;DHT22;9854;50.968;4.168;2022-07-04T01:40:18;15.70;99.90
19437;DHT22;9854;50.968;4.168;2022-07-04T01:42:44;15.80;99.90
19437;DHT22;9854;50.968;4.168;2022-07-04T01:45:10;15.70;99.90
19437;DHT22;9854;50.968;4.168;2022-07-04T01:47:36;15.80;99.90
19437;DHT22;9854;50.968;4.168;2022-07-04T01:50:04;15.80;99.90
19437;DHT22;9854;50.968;4.168;2022-07-04T01:52:30;15.80;99.90
19437;DHT22;9854;50.968;4.168;2022-07-04T01:54:55;15.80;99.90
19437;DHT22;9854;50.968;4.168;2022-07-04T01:57:21;15.80;99.90
19437;DHT22;9854;50.968;4.168;2022-07-04T01:59:46;15.90;99.90
19437;DHT22;9854;50.968;4.168;2022-07-04T02:02:31;16.20;99.90
19437;DHT22;9854;50.968;4.168;2022-07-04T02:04:56;16.20;99.90
19437;DHT22;9854;50.968;4.168;2022-07-04T02:07:22;16.30;99.90
19437;DHT22;9854;50.968;4.168;2022-07-04T02:09:48;16.20;99.90
19437;DHT22;9854;50.968;4.168;2022-07-04T02:12:14;16.10;99.90
19437;DHT22;9854;50.968;4.168;2022-07-04T02:14:57;16.00;99.90
19437;DHT22;9854;50.968;4.168;2022-07-04T02:17:23;16.00;99.90
19437;DHT22;9854;50.968;4.168;2022-07-04T02:19:49;16.10;99.90
19437;DHT22;9854;50.968;4.168;2022-07-04T02:22:15;16.40;99.90
19437;DHT22;9854;50.968;4.168;2022-07-04T02:24:41;16.70;99.90
19437;DHT22;9854;50.968;4.168;2022-07-04T02:27:07;16.30;99.90
19437;DHT22;9854;50.968;4.168;2022-07-04T02:29:33;16.20;99.90
19437;DHT22;9854;50.968;4.168;2022-07-04T02:31:59;16.10;99.90
19437;DHT22;9854;50.968;4.168;2022-07-04T02:34:25;16.10;99.90
19437;DHT22;9854;50.968;4.168;2022-07-04T02:36:51;16.10;99.90
19437;DHT22;9854;50.968;4.168;2022-07-04T02:39:16;16.20;99.90
19437;DHT22;9854;50.968;4.168;2022-07-04T02:41:42;16.30;99.90
19437;DHT22;9854;50.968;4.168;2022-07-04T02:44:08;16.40;99.90
19437;DHT22;9854;50.968;4.168;2022-07-04T02:46:34;16.30;99.90
19437;DHT22;9854;50.968;4.168;2022-07-04T02:49:00;16.10;99.90
19437;DHT22;9854;50.968;4.168;2022-07-04T02:51:26;16.10;99.90
19437;DHT22;9854;50.968;4.168;2022-07-04T02:53:52;15.80;99.90
19437;DHT22;9854;50.968;4.168;2022-07-04T02:56:18;15.80;99.90
19437;DHT22;9854;50.968;4.168;2022-07-04T02:58:44;15.70;99.90
19437;DHT22;9854;50.968;4.168;2022-07-04T03:01:09;15.70;99.90
19437;DHT22;9854;50.968;4.168;2022-07-04T03:03:38;15.70;99.90
19437;DHT22;9854;50.968;4.168;2022-07-04T03:06:05;16.00;99.90
19437;DHT22;9854;50.968;4.168;2022-07-04T03:08:31;16.00;99.90
19437;DHT22;9854;50.968;4.168;2022-07-04T03:10:57;16.00;99.90
19437;DHT22;9854;50.968;4.168;2022-07-04T03:13:22;16.00;99.90
19437;DHT22;9854;50.968;4.168;2022-07-04T03:15:49;16.00;99.90
19437;DHT22;9854;50.968;4.168;2022-07-04T03:18:15;15.70;99.90
19437;DHT22;9854;50.968;4.168;2022-07-04T03:20:41;15.70;99.90
19437;DHT22;9854;50.968;4.168;2022-07-04T03:23:07;15.40;99.90
19437;DHT22;9854;50.968;4.168;2022-07-04T03:25:32;15.10;99.90
19437;DHT22;9854;50.968;4.168;2022-07-04T03:27:58;15.20;99.90
19437;DHT22;9854;50.968;4.168;2022-07-04T03:30:23;15.10;99.90
19437;DHT22;9854;50.968;4.168;2022-07-04T03:32:49;15.10;99.90
19437;DHT22;9854;50.968;4.168;2022-07-04T03:35:15;15.20;99.90
19437;DHT22;9854;50.968;4.168;2022-07-04T03:37:41;15.10;99.90
19437;DHT22;9854;50.968;4.168;2022-07-04T03:40:07;15.00;99.90
19437;DHT22;9854;50.968;4.168;2022-07-04T03:42:33;15.00;99.90
19437;DHT22;9854;50.968;4.168;2022-07-04T03:44:58;14.90;99.90
19437;DHT22;9854;50.968;4.168;2022-07-04T03:47:24;15.00;99.90
19437;DHT22;9854;50.968;4.168;2022-07-04T03:49:50;15.20;99.90
19437;DHT22;9854;50.968;4.168;2022-07-04T03:52:16;15.20;99.90
19437;DHT22;9854;50.968;4.168;2022-07-04T03:54:41;15.00;99.90
19437;DHT22;9854;50.968;4.168;2022-07-04T03:57:07;15.00;99.90
19437;DHT22;9854;50.968;4.168;2022-07-04T03:59:33;15.10;99.90
19437;DHT22;9854;50.968;4.168;2022-07-04T04:01:58;15.00;99.90
19437;DHT22;9854;50.968;4.168;2022-07-04T04:04:24;15.10;99.90
19437;DHT22;9854;50.968;4.168;2022-07-04T04:07:08;14.90;99.90
19437;DHT22;9854;50.968;4.168;2022-07-04T04:09:34;14.90;99.90
19437;DHT22;9854;50.968;4.168;2022-07-04T04:11:59;15.00;99.90
19437;DHT22;9854;50.968;4.168;2022-07-04T04:14:25;14.90;99.90
19437;DHT22;9854;50.968;4.168;2022-07-04T04:16:53;14.80;99.90
19437;DHT22;9854;50.968;4.168;2022-07-04T04:19:18;14.80;99.90
19437;DHT22;9854;50.968;4.168;2022-07-04T04:21:44;14.80;99.90
19437;DHT22;9854;50.968;4.168;2022-07-04T04:24:10;14.90;99.90
19437;DHT22;9854;50.968;4.168;2022-07-04T04:26:35;15.10;99.90
19437;DHT22;9854;50.968;4.168;2022-07-04T04:29:01;15.20;99.90
19437;DHT22;9854;50.968;4.168;2022-07-04T04:31:27;15.40;99.90
19437;DHT22;9854;50.968;4.168;2022-07-04T04:33:52;15.40;99.90
19437;DHT22;9854;50.968;4.168;2022-07-04T04:36:18;15.50;99.90
19437;DHT22;9854;50.968;4.168;2022-07-04T04:38:44;15.50;99.90
19437;DHT22;9854;50.968;4.168;2022-07-04T04:41:09;15.70;99.90
19437;DHT22;9854;50.968;4.168;2022-07-04T04:43:35;15.60;99.90
19437;DHT22;9854;50.968;4.168;2022-07-04T04:46:01;15.60;99.90
19437;DHT22;9854;50.968;4.168;2022-07-04T04:48:26;15.50;99.90
19437;DHT22;9854;50.968;4.168;2022-07-04T04:50:52;15.60;99.90
19437;DHT22;9854;50.968;4.168;2022-07-04T04:53:18;15.50;99.90
19437;DHT22;9854;50.968;4.168;2022-07-04T04:55:43;15.60;99.90
19437;DHT22;9854;50.968;4.168;2022-07-04T04:58:09;15.70;99.90
19437;DHT22;9854;50.968;4.168;2022-07-04T05:00:35;15.60;99.90
19437;DHT22;9854;50.968;4.168;2022-07-04T05:03:00;15.70;99.90
19437;DHT22;9854;50.968;4.168;2022-07-04T05:05:26;15.80;99.90
19437;DHT22;9854;50.968;4.168;2022-07-04T05:07:51;15.90;99.90
19437;DHT22;9854;50.968;4.168;2022-07-04T05:10:17;16.00;99.90
19437;DHT22;9854;50.968;4.168;2022-07-04T05:12:43;15.80;99.90
19437;DHT22;9854;50.968;4.168;2022-07-04T05:15:09;15.90;99.90
19437;DHT22;9854;50.968;4.168;2022-07-04T05:17:35;15.90;99.90
19437;DHT22;9854;50.968;4.168;2022-07-04T05:20:02;15.70;99.90
19437;DHT22;9854;50.968;4.168;2022-07-04T05:22:28;15.60;99.90
19437;DHT22;9854;50.968;4.168;2022-07-04T05:24:53;15.60;99.90
19437;DHT22;9854;50.968;4.168;2022-07-04T05:27:19;15.70;99.90
19437;DHT22;9854;50.968;4.168;2022-07-04T05:29:45;15.60;99.90
19437;DHT22;9854;50.968;4.168;2022-07-04T05:32:10;15.80;99.90
19437;DHT22;9854;50.968;4.168;2022-07-04T05:34:36;15.90;99.90
19437;DHT22;9854;50.968;4.168;2022-07-04T05:37:03;16.20;99.90
19437;DHT22;9854;50.968;4.168;2022-07-04T05:39:29;16.20;99.90
19437;DHT22;9854;50.968;4.168;2022-07-04T05:41:55;16.30;99.90
19437;DHT22;9854;50.968;4.168;2022-07-04T05:44:20;16.20;99.90
19437;DHT22;9854;50.968;4.168;2022-07-04T05:46:46;16.20;99.90
19437;DHT22;9854;50.968;4.168;2022-07-04T05:49:12;16.10;99.90
19437;DHT22;9854;50.968;4.168;2022-07-04T05:51:37;16.10;99.90
19437;DHT22;9854;50.968;4.168;2022-07-04T05:54:03;16.10;99.90
19437;DHT22;9854;50.968;4.168;2022-07-04T05:56:29;16.00;99.90
19437;DHT22;9854;50.968;4.168;2022-07-04T05:58:55;15.90;99.90
19437;DHT22;9854;50.968;4.168;2022-07-04T06:01:21;16.10;99.90
19437;DHT22;9854;50.968;4.168;2022-07-04T06:03:47;16.30;99.90
19437;DHT22;9854;50.968;4.168;2022-07-04T06:06:12;16.20;99.90
19437;DHT22;9854;50.968;4.168;2022-07-04T06:08:38;16.10;99.90
19437;DHT22;9854;50.968;4.168;2022-07-04T06:11:04;16.10;99.90
19437;DHT22;9854;50.968;4.168;2022-07-04T06:13:29;16.00;99.90
19437;DHT22;9854;50.968;4.168;2022-07-04T06:15:56;16.20;99.90
19437;DHT22;9854;50.968;4.168;2022-07-04T06:18:21;16.30;99.90
19437;DHT22;9854;50.968;4.168;2022-07-04T06:20:47;16.50;99.90
19437;DHT22;9854;50.968;4.168;2022-07-04T06:23:13;16.50;99.90
19437;DHT22;9854;50.968;4.168;2022-07-04T06:25:38;16.70;99.90
19437;DHT22;9854;50.968;4.168;2022-07-04T06:28:04;16.80;99.90
19437;DHT22;9854;50.968;4.168;2022-07-04T06:30:30;16.80;99.90
19437;DHT22;9854;50.968;4.168;2022-07-04T06:32:57;16.80;99.90
19437;DHT22;9854;50.968;4.168;2022-07-04T06:35:29;16.90;99.90
19437;DHT22;9854;50.968;4.168;2022-07-04T06:38:17;17.10;99.90
19437;DHT22;9854;50.968;4.168;2022-07-04T06:40:43;17.10;99.90
19437;DHT22;9854;50.968;4.168;2022-07-04T06:43:09;17.20;99.90
19437;DHT22;9854;50.968;4.168;2022-07-04T06:45:35;17.30;99.90
19437;DHT22;9854;50.968;4.168;2022-07-04T06:48:02;17.30;99.90
19437;DHT22;9854;50.968;4.168;2022-07-04T06:50:28;17.30;99.90
19437;DHT22;9854;50.968;4.168;2022-07-04T06:53:01;17.20;99.90
19437;DHT22;9854;50.968;4.168;2022-07-04T06:55:27;17.20;99.90
19437;DHT22;9854;50.968;4.168;2022-07-04T06:57:53;17.40;99.90
19437;DHT22;9854;50.968;4.168;2022-07-04T07:00:18;17.30;99.90
19437;DHT22;9854;50.968;4.168;2022-07-04T07:02:44;17.30;99.90
19437;DHT22;9854;50.968;4.168;2022-07-04T07:05:10;17.40;99.90
19437;DHT22;9854;50.968;4.168;2022-07-04T07:07:35;17.30;99.90
19437;DHT22;9854;50.968;4.168;2022-07-04T07:10:01;17.30;99.90
19437;DHT22;9854;50.968;4.168;2022-07-04T07:12:28;17.30;99.90
19437;DHT22;9854;50.968;4.168;2022-07-04T07:14:54;17.50;99.90
19437;DHT22;9854;50.968;4.168;2022-07-04T07:17:20;17.70;99.90
19437;DHT22;9854;50.968;4.168;2022-07-04T07:19:46;17.70;99.90
19437;DHT22;9854;50.968;4.168;2022-07-04T07:22:13;17.70;99.90
19437;DHT22;9854;50.968;4.168;2022-07-04T07:24:39;17.80;99.90
19437;DHT22;9854;50.968;4.168;2022-07-04T07:27:05;18.00;99.90
19437;DHT22;9854;50.968;4.168;2022-07-04T07:29:31;18.00;99.90
19437;DHT22;9854;50.968;4.168;2022-07-04T07:31:58;18.10;99.90
19437;DHT22;9854;50.968;4.168;2022-07-04T07:34:24;18.30;99.90
19437;DHT22;9854;50.968;4.168;2022-07-04T07:36:50;18.30;99.90
19437;DHT22;9854;50.968;4.168;2022-07-04T07:39:15;18.20;99.90
19437;DHT22;9854;50.968;4.168;2022-07-04T07:41:41;18.30;99.90
19437;DHT22;9854;50.968;4.168;2022-07-04T07:44:07;18.10;99.90
19437;DHT22;9854;50.968;4.168;2022-07-04T07:46:33;18.20;99.90
19437;DHT22;9854;50.968;4.168;2022-07-04T07:48:59;18.30;99.90
19437;DHT22;9854;50.968;4.168;2022-07-04T07:51:25;18.50;99.90
19437;DHT22;9854;50.968;4.168;2022-07-04T07:53:51;18.50;99.90
19437;DHT22;9854;50.968;4.168;2022-07-04T07:56:16;18.50;99.90
19437;DHT22;9854;50.968;4.168;2022-07-04T07:58:42;18.50;99.90
19437;DHT22;9854;50.968;4.168;2022-07-04T08:01:08;18.60;99.90
19437;DHT22;9854;50.968;4.168;2022-07-04T08:03:33;18.80;99.90
19437;DHT22;9854;50.968;4.168;2022-07-04T08:06:18;18.90;99.90
19437;DHT22;9854;50.968;4.168;2022-07-04T08:08:43;18.90;99.90
19437;DHT22;9854;50.968;4.168;2022-07-04T08:11:11;18.90;99.90
19437;DHT22;9854;50.968;4.168;2022-07-04T08:13:37;18.90;99.90
19437;DHT22;9854;50.968;4.168;2022-07-04T08:16:03;18.90;99.90
19437;DHT22;9854;50.968;4.168;2022-07-04T08:18:29;19.00;99.90
19437;DHT22;9854;50.968;4.168;2022-07-04T08:20:55;19.30;99.90
19437;DHT22;9854;50.968;4.168;2022-07-04T08:23:21;19.20;99.90
19437;DHT22;9854;50.968;4.168;2022-07-04T08:25:46;19.40;99.90
19437;DHT22;9854;50.968;4.168;2022-07-04T08:28:12;19.40;99.90
19437;DHT22;9854;50.968;4.168;2022-07-04T08:30:37;19.40;99.90
19437;DHT22;9854;50.968;4.168;2022-07-04T08:33:03;19.40;99.90
19437;DHT22;9854;50.968;4.168;2022-07-04T08:35:29;19.40;99.90
19437;DHT22;9854;50.968;4.168;2022-07-04T08:37:54;19.60;99.90
19437;DHT22;9854;50.968;4.168;2022-07-04T08:40:25;19.80;99.90
19437;DHT22;9854;50.968;4.168;2022-07-04T08:42:52;20.00;99.90
19437;DHT22;9854;50.968;4.168;2022-07-04T08:45:26;19.90;99.90
19437;DHT22;9854;50.968;4.168;2022-07-04T08:47:54;20.00;99.90
19437;DHT22;9854;50.968;4.168;2022-07-04T08:50:30;20.10;99.90
19437;DHT22;9854;50.968;4.168;2022-07-04T08:53:00;20.00;99.90
19437;DHT22;9854;50.968;4.168;2022-07-04T08:55:26;20.30;99.90
19437;DHT22;9854;50.968;4.168;2022-07-04T08:58:11;20.30;99.90
19437;DHT22;9854;50.968;4.168;2022-07-04T09:03:28;20.60;99.90
19437;DHT22;9854;50.968;4.168;2022-07-04T09:05:55;20.60;99.90
19437;DHT22;9854;50.968;4.168;2022-07-04T09:08:21;20.70;99.90
19437;DHT22;9854;50.968;4.168;2022-07-04T09:10:47;20.70;99.90
19437;DHT22;9854;50.968;4.168;2022-07-04T09:13:13;20.70;99.90
19437;DHT22;9854;50.968;4.168;2022-07-04T09:15:48;20.80;99.90
19437;DHT22;9854;50.968;4.168;2022-07-04T09:18:25;20.90;99.90
19437;DHT22;9854;50.968;4.168;2022-07-04T09:20:56;20.90;99.90
19437;DHT22;9854;50.968;4.168;2022-07-04T09:23:31;21.10;99.90
19437;DHT22;9854;50.968;4.168;2022-07-04T09:26:20;21.20;99.90
19437;DHT22;9854;50.968;4.168;2022-07-04T09:28:57;21.40;99.90
19437;DHT22;9854;50.968;4.168;2022-07-04T09:31:25;21.30;99.90
19437;DHT22;9854;50.968;4.168;2022-07-04T09:33:52;21.30;99.90
19437;DHT22;9854;50.968;4.168;2022-07-04T09:36:20;21.40;99.90
19437;DHT22;9854;50.968;4.168;2022-07-04T09:39:12;21.30;99.90
19437;DHT22;9854;50.968;4.168;2022-07-04T09:41:59;21.70;99.90
19437;DHT22;9854;50.968;4.168;2022-07-04T09:44:43;21.80;99.90
19437;DHT22;9854;50.968;4.168;2022-07-04T09:47:26;22.00;99.90
19437;DHT22;9854;50.968;4.168;2022-07-04T09:50:18;22.00;99.90
19437;DHT22;9854;50.968;4.168;2022-07-04T09:52:50;22.20;99.90
19437;DHT22;9854;50.968;4.168;2022-07-04T09:55:32;22.00;99.90
19437;DHT22;9854;50.968;4.168;2022-07-04T09:58:06;22.10;99.90
19437;DHT22;9854;50.968;4.168;2022-07-04T10:00:36;22.40;99.90
19437;DHT22;9854;50.968;4.168;2022-07-04T10:03:18;22.60;99.90
19437;DHT22;9854;50.968;4.168;2022-07-04T10:06:01;22.80;99.90
19437;DHT22;9854;50.968;4.168;2022-07-04T10:08:26;22.80;99.90
19437;DHT22;9854;50.968;4.168;2022-07-04T10:10:56;22.90;99.90
19437;DHT22;9854;50.968;4.168;2022-07-04T10:13:23;23.00;99.90
19437;DHT22;9854;50.968;4.168;2022-07-04T10:15:49;22.90;99.90
19437;DHT22;9854;50.968;4.168;2022-07-04T10:18:18;22.40;99.90
19437;DHT22;9854;50.968;4.168;2022-07-04T10:20:44;22.30;99.90
19437;DHT22;9854;50.968;4.168;2022-07-04T10:23:10;22.30;99.90
19437;DHT22;9854;50.968;4.168;2022-07-04T10:25:36;22.40;99.90
19437;DHT22;9854;50.968;4.168;2022-07-04T10:28:02;22.40;99.90
19437;DHT22;9854;50.968;4.168;2022-07-04T10:30:33;22.30;99.90
19437;DHT22;9854;50.968;4.168;2022-07-04T10:33:04;22.20;99.90
19437;DHT22;9854;50.968;4.168;2022-07-04T10:35:49;22.30;99.90
19437;DHT22;9854;50.968;4.168;2022-07-04T10:38:16;22.50;99.90
19437;DHT22;9854;50.968;4.168;2022-07-04T10:48:28;23.10;99.90
19437;DHT22;9854;50.968;4.168;2022-07-04T10:51:07;23.00;99.90
19437;DHT22;9854;50.968;4.168;2022-07-04T10:54:00;22.70;99.90
19437;DHT22;9854;50.968;4.168;2022-07-04T10:58:52;22.70;99.90
19437;DHT22;9854;50.968;4.168;2022-07-04T11:01:18;22.90;99.90
19437;DHT22;9854;50.968;4.168;2022-07-04T11:03:48;23.10;99.90
19437;DHT22;9854;50.968;4.168;2022-07-04T11:16:57;24.10;99.90
19437;DHT22;9854;50.968;4.168;2022-07-04T11:19:23;23.70;99.90
19437;DHT22;9854;50.968;4.168;2022-07-04T11:21:49;23.70;99.90
19437;DHT22;9854;50.968;4.168;2022-07-04T11:24:15;24.00;99.90
19437;DHT22;9854;50.968;4.168;2022-07-04T11:26:40;24.20;99.90
19437;DHT22;9854;50.968;4.168;2022-07-04T11:29:06;24.30;99.90
19437;DHT22;9854;50.968;4.168;2022-07-04T11:31:54;24.30;99.90
19437;DHT22;9854;50.968;4.168;2022-07-04T11:34:20;23.80;99.90
19437;DHT22;9854;50.968;4.168;2022-07-04T11:36:47;23.30;99.90
19437;DHT22;9854;50.968;4.168;2022-07-04T11:39:18;23.10;99.90
19437;DHT22;9854;50.968;4.168;2022-07-04T11:41:52;23.10;99.90
19437;DHT22;9854;50.968;4.168;2022-07-04T11:44:39;23.20;99.90
19437;DHT22;9854;50.968;4.168;2022-07-04T11:47:25;23.50;99.90
19437;DHT22;9854;50.968;4.168;2022-07-04T11:49:57;23.90;99.90
19437;DHT22;9854;50.968;4.168;2022-07-04T11:52:39;24.10;99.90
19437;DHT22;9854;50.968;4.168;2022-07-04T11:55:06;23.90;99.90
19437;DHT22;9854;50.968;4.168;2022-07-04T11:57:37;23.40;99.90
19437;DHT22;9854;50.968;4.168;2022-07-04T12:00:09;23.50;99.90
19437;DHT22;9854;50.968;4.168;2022-07-04T12:02:36;23.50;99.90
19437;DHT22;9854;50.968;4.168;2022-07-04T12:05:05;23.70;99.90
19437;DHT22;9854;50.968;4.168;2022-07-04T12:07:32;24.00;99.90
19437;DHT22;9854;50.968;4.168;2022-07-04T12:10:14;24.10;99.90
19437;DHT22;9854;50.968;4.168;2022-07-04T12:13:07;23.90;99.90
19437;DHT22;9854;50.968;4.168;2022-07-04T12:15:45;23.80;99.90
19437;DHT22;9854;50.968;4.168;2022-07-04T12:20:47;24.30;99.90
19437;DHT22;9854;50.968;4.168;2022-07-04T12:23:13;24.60;99.90
19437;DHT22;9854;50.968;4.168;2022-07-04T12:25:39;24.50;99.90
19437;DHT22;9854;50.968;4.168;2022-07-04T12:28:10;25.00;99.90
19437;DHT22;9854;50.968;4.168;2022-07-04T12:30:47;25.30;99.90
19437;DHT22;9854;50.968;4.168;2022-07-04T12:33:14;25.50;99.90
19437;DHT22;9854;50.968;4.168;2022-07-04T12:35:42;25.50;99.90
19437;DHT22;9854;50.968;4.168;2022-07-04T12:40:51;24.40;99.90
19437;DHT22;9854;50.968;4.168;2022-07-04T12:43:17;24.10;99.90
19437;DHT22;9854;50.968;4.168;2022-07-04T12:45:45;23.70;99.90
19437;DHT22;9854;50.968;4.168;2022-07-04T12:48:28;23.60;99.90
19437;DHT22;9854;50.968;4.168;2022-07-04T12:51:09;23.70;99.90
19437;DHT22;9854;50.968;4.168;2022-07-04T12:53:39;23.70;99.90
19437;DHT22;9854;50.968;4.168;2022-07-04T12:56:06;24.40;99.90
19437;DHT22;9854;50.968;4.168;2022-07-04T12:58:32;24.80;99.90
19437;DHT22;9854;50.968;4.168;2022-07-04T13:00:57;25.10;99.90
19437;DHT22;9854;50.968;4.168;2022-07-04T13:03:23;25.20;99.90
19437;DHT22;9854;50.968;4.168;2022-07-04T13:05:49;25.30;99.90
19437;DHT22;9854;50.968;4.168;2022-07-04T13:08:14;24.90;99.90
19437;DHT22;9854;50.968;4.168;2022-07-04T13:10:40;24.70;99.90
19437;DHT22;9854;50.968;4.168;2022-07-04T13:13:06;24.60;99.90
19437;DHT22;9854;50.968;4.168;2022-07-04T13:15:32;24.60;99.90
19437;DHT22;9854;50.968;4.168;2022-07-04T13:17:58;24.90;99.90
19437;DHT22;9854;50.968;4.168;2022-07-04T13:20:24;25.40;99.90
19437;DHT22;9854;50.968;4.168;2022-07-04T13:22:50;25.50;99.90
19437;DHT22;9854;50.968;4.168;2022-07-04T13:25:15;25.70;99.90
19437;DHT22;9854;50.968;4.168;2022-07-04T13:27:41;25.60;99.90
19437;DHT22;9854;50.968;4.168;2022-07-04T13:30:07;25.30;99.90
19437;DHT22;9854;50.968;4.168;2022-07-04T13:32:35;25.00;99.90
19437;DHT22;9854;50.968;4.168;2022-07-04T13:35:02;25.00;99.90
19437;DHT22;9854;50.968;4.168;2022-07-04T13:37:27;25.20;99.90
19437;DHT22;9854;50.968;4.168;2022-07-04T13:39:53;25.30;99.90
19437;DHT22;9854;50.968;4.168;2022-07-04T13:42:19;25.80;99.90
19437;DHT22;9854;50.968;4.168;2022-07-04T13:45:04;26.60;99.90
19437;DHT22;9854;50.968;4.168;2022-07-04T13:47:30;26.90;99.90
19437;DHT22;9854;50.968;4.168;2022-07-04T13:49:56;26.70;99.90
19437;DHT22;9854;50.968;4.168;2022-07-04T13:52:21;26.80;99.90
19437;DHT22;9854;50.968;4.168;2022-07-04T13:54:47;26.60;99.90
19437;DHT22;9854;50.968;4.168;2022-07-04T13:57:13;26.70;99.90
19437;DHT22;9854;50.968;4.168;2022-07-04T13:59:38;26.90;99.90
19437;DHT22;9854;50.968;4.168;2022-07-04T14:02:04;27.00;99.90
19437;DHT22;9854;50.968;4.168;2022-07-04T14:04:29;27.40;99.90
19437;DHT22;9854;50.968;4.168;2022-07-04T14:06:55;27.30;99.90
19437;DHT22;9854;50.968;4.168;2022-07-04T14:09:21;27.40;99.90
19437;DHT22;9854;50.968;4.168;2022-07-04T14:11:47;27.50;99.90
19437;DHT22;9854;50.968;4.168;2022-07-04T14:14:13;27.70;99.90
19437;DHT22;9854;50.968;4.168;2022-07-04T14:16:38;27.80;99.90
19437;DHT22;9854;50.968;4.168;2022-07-04T14:19:04;27.50;99.90
19437;DHT22;9854;50.968;4.168;2022-07-04T14:21:29;27.70;99.90
19437;DHT22;9854;50.968;4.168;2022-07-04T14:23:55;27.70;99.90
19437;DHT22;9854;50.968;4.168;2022-07-04T14:26:21;27.80;99.90
19437;DHT22;9854;50.968;4.168;2022-07-04T14:28:50;27.90;99.90
19437;DHT22;9854;50.968;4.168;2022-07-04T14:31:16;27.50;99.90
19437;DHT22;9854;50.968;4.168;2022-07-04T14:33:42;27.50;99.90
19437;DHT22;9854;50.968;4.168;2022-07-04T14:36:08;28.00;99.90
19437;DHT22;9854;50.968;4.168;2022-07-04T14:38:36;28.20;99.90
19437;DHT22;9854;50.968;4.168;2022-07-04T14:41:02;28.20;99.90
19437;DHT22;9854;50.968;4.168;2022-07-04T14:43:39;28.20;99.90
19437;DHT22;9854;50.968;4.168;2022-07-04T14:46:05;28.00;99.90
19437;DHT22;9854;50.968;4.168;2022-07-04T14:48:31;27.60;99.90
19437;DHT22;9854;50.968;4.168;2022-07-04T14:50:56;27.00;99.90
19437;DHT22;9854;50.968;4.168;2022-07-04T14:53:22;26.90;99.90
19437;DHT22;9854;50.968;4.168;2022-07-04T14:55:48;27.20;99.90
19437;DHT22;9854;50.968;4.168;2022-07-04T14:58:14;27.40;99.90
19437;DHT22;9854;50.968;4.168;2022-07-04T15:00:39;27.40;99.90
19437;DHT22;9854;50.968;4.168;2022-07-04T15:03:05;26.80;99.90
19437;DHT22;9854;50.968;4.168;2022-07-04T15:05:31;26.60;99.90
19437;DHT22;9854;50.968;4.168;2022-07-04T15:07:56;26.90;99.90
19437;DHT22;9854;50.968;4.168;2022-07-04T15:10:23;28.00;99.90
19437;DHT22;9854;50.968;4.168;2022-07-04T15:12:49;29.50;99.90
19437;DHT22;9854;50.968;4.168;2022-07-04T15:15:15;29.90;99.90
19437;DHT22;9854;50.968;4.168;2022-07-04T15:17:40;29.30;99.90
19437;DHT22;9854;50.968;4.168;2022-07-04T15:20:07;29.50;99.90
19437;DHT22;9854;50.968;4.168;2022-07-04T15:22:51;29.30;99.90
19437;DHT22;9854;50.968;4.168;2022-07-04T15:25:35;29.00;99.90
19437;DHT22;9854;50.968;4.168;2022-07-04T15:28:02;28.80;99.90
19437;DHT22;9854;50.968;4.168;2022-07-04T15:30:28;28.60;99.90
19437;DHT22;9854;50.968;4.168;2022-07-04T15:32:53;28.80;99.90
19437;DHT22;9854;50.968;4.168;2022-07-04T15:35:19;28.60;99.90
19437;DHT22;9854;50.968;4.168;2022-07-04T15:37:44;28.60;99.90
19437;DHT22;9854;50.968;4.168;2022-07-04T15:40:10;28.50;99.90
19437;DHT22;9854;50.968;4.168;2022-07-04T15:42:36;29.00;99.90
19437;DHT22;9854;50.968;4.168;2022-07-04T15:45:01;29.00;99.90
19437;DHT22;9854;50.968;4.168;2022-07-04T15:47:28;29.20;99.90
19437;DHT22;9854;50.968;4.168;2022-07-04T15:49:53;28.80;99.90
19437;DHT22;9854;50.968;4.168;2022-07-04T15:52:19;28.50;99.90
19437;DHT22;9854;50.968;4.168;2022-07-04T15:54:45;28.50;99.90
19437;DHT22;9854;50.968;4.168;2022-07-04T15:57:10;28.00;99.90
19437;DHT22;9854;50.968;4.168;2022-07-04T15:59:36;28.10;99.90
19437;DHT22;9854;50.968;4.168;2022-07-04T16:02:01;28.00;99.90
19437;DHT22;9854;50.968;4.168;2022-07-04T16:04:27;27.90;99.90
19437;DHT22;9854;50.968;4.168;2022-07-04T16:06:53;27.90;99.90
19437;DHT22;9854;50.968;4.168;2022-07-04T16:09:18;27.90;99.90
19437;DHT22;9854;50.968;4.168;2022-07-04T16:11:44;27.60;99.90
19437;DHT22;9854;50.968;4.168;2022-07-04T16:14:12;27.50;99.90
19437;DHT22;9854;50.968;4.168;2022-07-04T16:16:37;27.40;99.90